createdAt,value
2023-05-06T00:00:27.630Z,101649.59
2023-05-06T00:02:54.473Z,101643.56
2023-05-06T00:05:21.081Z,101638.94
2023-05-06T00:07:47.677Z,101633.19
2023-05-06T00:10:17.083Z,101628.00
2023-05-06T00:12:43.865Z,101634.31
2023-05-06T00:15:13.303Z,101626.69
2023-05-06T00:17:39.954Z,101634.03
2023-05-06T00:20:07.415Z,101622.25
2023-05-06T00:22:36.467Z,101640.09
2023-05-06T00:25:03.151Z,101638.66
2023-05-06T00:27:29.865Z,101623.81
2023-05-06T00:30:01.413Z,101624.25
2023-05-06T00:32:28.107Z,101634.34
2023-05-06T00:34:54.815Z,101627.13
2023-05-06T00:37:21.483Z,101627.59
2023-05-06T00:39:50.829Z,101634.19
2023-05-06T00:42:17.430Z,101616.03
2023-05-06T00:44:44.219Z,101626.28
2023-05-06T00:47:10.796Z,101636.06
2023-05-06T00:49:39.556Z,101624.09
2023-05-06T00:52:09.047Z,101631.31
2023-05-06T00:54:35.919Z,101636.06
2023-05-06T00:57:02.793Z,101634.59
2023-05-06T00:59:29.382Z,101628.41
2023-05-06T01:01:56.097Z,101627.53
2023-05-06T01:04:26.032Z,101618.03
2023-05-06T01:07:03.021Z,101620.22
2023-05-06T01:09:42.177Z,101623.22
2023-05-06T01:12:17.905Z,101616.16
2023-05-06T01:15:11.090Z,101610.97
2023-05-06T01:17:50.445Z,101597.25
2023-05-06T01:20:18.568Z,101612.25
2023-05-06T01:22:50.005Z,101606.34
2023-05-06T01:25:21.313Z,101606.22
2023-05-06T01:27:50.533Z,101588.88
2023-05-06T01:30:19.628Z,101607.06
2023-05-06T01:32:55.330Z,101603.47
2023-05-06T01:35:52.403Z,101603.75
2023-05-06T01:38:31.291Z,101605.75
2023-05-06T01:41:00.232Z,101611.34
2023-05-06T01:43:32.735Z,101613.22
2023-05-06T01:46:01.425Z,101609.03
2023-05-06T01:48:33.834Z,101608.00
2023-05-06T01:51:00.584Z,101617.38
2023-05-06T01:53:27.123Z,101606.84
2023-05-06T01:55:53.827Z,101603.97
2023-05-06T01:58:20.424Z,101620.81
2023-05-06T02:00:47.000Z,101628.16
2023-05-06T02:03:19.159Z,101619.75
2023-05-06T02:05:46.183Z,101626.09
2023-05-06T02:08:13.203Z,101635.28
2023-05-06T02:10:39.794Z,101629.78
2023-05-06T02:13:06.559Z,101635.97
2023-05-06T02:15:33.308Z,101586.66
2023-05-06T02:18:00.085Z,101647.22
2023-05-06T02:20:26.849Z,101641.13
2023-05-06T02:22:53.403Z,101636.97
2023-05-06T02:25:22.232Z,101615.19
2023-05-06T02:27:48.801Z,101637.09
2023-05-06T02:30:20.344Z,101628.44
2023-05-06T02:32:47.317Z,101630.28
2023-05-06T02:35:13.973Z,101629.84
2023-05-06T02:37:40.587Z,101636.03
2023-05-06T02:40:08.962Z,101592.31
2023-05-06T02:42:36.009Z,101634.25
2023-05-06T02:45:05.171Z,101621.00
2023-05-06T02:47:31.741Z,101632.38
2023-05-06T02:50:00.756Z,101635.13
2023-05-06T02:52:27.312Z,101624.59
2023-05-06T02:54:53.868Z,101634.41
2023-05-06T02:57:25.350Z,101597.31
2023-05-06T02:59:54.372Z,101621.41
2023-05-06T03:02:20.978Z,101619.94
2023-05-06T03:04:47.696Z,101612.56
2023-05-06T03:07:14.382Z,101624.53
2023-05-06T03:09:40.921Z,101616.44
2023-05-06T03:12:07.512Z,101626.94
2023-05-06T03:14:34.115Z,101606.94
2023-05-06T03:17:00.661Z,101624.34
2023-05-06T03:19:27.254Z,101622.28
2023-05-06T03:21:53.793Z,101618.69
2023-05-06T03:24:20.501Z,101626.63
2023-05-06T03:26:49.646Z,101624.03
2023-05-06T03:29:16.208Z,101617.97
2023-05-06T03:31:42.783Z,101608.31
2023-05-06T03:34:09.478Z,101614.66
2023-05-06T03:36:36.131Z,101610.84
2023-05-06T03:39:02.829Z,101611.56
2023-05-06T03:41:31.923Z,101582.31
2023-05-06T03:44:01.817Z,101611.84
2023-05-06T03:46:30.937Z,101615.31
2023-05-06T03:48:58.341Z,101612.00
2023-05-06T03:51:24.983Z,101619.28
2023-05-06T03:53:54.942Z,101607.06
2023-05-06T03:56:22.368Z,101613.97
2023-05-06T03:58:49.002Z,101569.84
2023-05-06T04:01:17.240Z,101623.91
2023-05-06T04:03:46.586Z,101610.53
2023-05-06T04:06:13.216Z,101621.44
2023-05-06T04:08:39.894Z,101616.84
2023-05-06T04:11:07.881Z,101612.25
2023-05-06T04:13:35.026Z,101618.56
2023-05-06T04:16:01.777Z,101613.13
2023-05-06T04:18:28.867Z,101623.97
2023-05-06T04:20:55.529Z,101632.88
2023-05-06T04:23:22.176Z,101638.81
2023-05-06T04:25:48.902Z,101622.84
2023-05-06T04:28:19.417Z,101640.34
2023-05-06T04:30:46.655Z,101637.94
2023-05-06T04:33:13.531Z,101645.91
2023-05-06T04:35:40.546Z,101646.22
2023-05-06T04:38:07.197Z,101648.59
2023-05-06T04:40:39.386Z,101640.72
2023-05-06T04:43:06.089Z,101638.03
2023-05-06T04:45:37.831Z,101627.69
2023-05-06T04:48:04.785Z,101637.72
2023-05-06T04:50:34.786Z,101637.47
2023-05-06T04:53:01.450Z,101639.53
2023-05-06T04:55:30.625Z,101628.13
2023-05-06T04:57:57.170Z,101631.22
2023-05-06T05:00:26.286Z,101651.28
2023-05-06T05:02:55.480Z,101643.97
2023-05-06T05:05:22.144Z,101650.34
2023-05-06T05:07:51.385Z,101640.09
2023-05-06T05:10:17.962Z,101650.94
2023-05-06T05:12:44.932Z,101650.16
2023-05-06T05:15:11.910Z,101648.84
2023-05-06T05:17:38.888Z,101650.09
2023-05-06T05:20:06.414Z,101651.28
2023-05-06T05:22:33.025Z,101653.06
2023-05-06T05:24:59.823Z,101644.41
2023-05-06T05:27:26.651Z,101660.81
2023-05-06T05:29:53.246Z,101656.38
2023-05-06T05:32:20.318Z,101669.19
2023-05-06T05:34:47.116Z,101638.50
2023-05-06T05:37:13.834Z,101660.06
2023-05-06T05:39:42.472Z,101672.88
2023-05-06T05:42:09.269Z,101673.34
2023-05-06T05:44:35.955Z,101660.69
2023-05-06T05:47:03.085Z,101685.75
2023-05-06T05:49:30.107Z,101687.75
2023-05-06T05:51:57.314Z,101687.06
2023-05-06T05:54:24.009Z,101672.63
2023-05-06T05:56:51.597Z,101684.03
2023-05-06T05:59:20.749Z,101688.91
2023-05-06T06:01:47.373Z,101689.38
2023-05-06T06:04:14.988Z,101681.19
2023-05-06T06:06:49.489Z,101672.59
2023-05-06T06:09:17.242Z,101679.28
2023-05-06T06:11:46.275Z,101673.63
2023-05-06T06:14:12.807Z,101678.66
2023-05-06T06:16:39.621Z,101669.53
2023-05-06T06:19:06.609Z,101678.47
2023-05-06T06:21:33.300Z,101680.19
2023-05-06T06:23:59.994Z,101671.06
2023-05-06T06:26:26.786Z,101679.34
2023-05-06T06:28:53.390Z,101683.25
2023-05-06T06:31:20.003Z,101621.00
2023-05-06T06:33:46.655Z,101676.50
2023-05-06T06:36:15.799Z,101671.03
2023-05-06T06:38:42.494Z,101666.03
2023-05-06T06:41:09.671Z,101665.47
2023-05-06T06:43:36.662Z,101672.69
2023-05-06T06:46:03.606Z,101668.69
2023-05-06T06:48:30.439Z,101664.09
2023-05-06T06:50:59.523Z,101669.75
2023-05-06T06:53:30.982Z,101674.56
2023-05-06T06:55:57.562Z,101662.00
2023-05-06T06:58:24.372Z,101671.59
2023-05-06T07:00:51.132Z,101675.94
2023-05-06T07:03:19.506Z,101670.63
2023-05-06T07:05:46.725Z,101662.34
2023-05-06T07:08:13.358Z,101665.69
2023-05-06T07:10:42.437Z,101662.56
2023-05-06T07:13:09.113Z,101675.56
2023-05-06T07:15:36.044Z,101668.06
2023-05-06T07:18:02.754Z,101657.31
2023-05-06T07:20:30.816Z,101655.94
2023-05-06T07:22:57.534Z,101682.47
2023-05-06T07:25:24.799Z,101690.19
2023-05-06T07:27:51.440Z,101695.34
2023-05-06T07:30:22.895Z,101694.09
2023-05-06T07:32:49.842Z,101684.19
2023-05-06T07:35:16.883Z,101684.63
2023-05-06T07:37:46.346Z,101692.47
2023-05-06T07:40:18.117Z,101694.34
2023-05-06T07:42:45.112Z,101697.91
2023-05-06T07:45:12.159Z,101692.91
2023-05-06T07:47:39.132Z,101682.81
2023-05-06T07:50:06.954Z,101660.72
2023-05-06T07:52:36.689Z,101697.06
2023-05-06T07:55:04.372Z,101694.84
2023-05-06T07:57:31.022Z,101703.13
2023-05-06T07:59:59.059Z,101700.28
2023-05-06T08:02:32.330Z,101704.44
2023-05-06T08:04:59.387Z,101708.16
2023-05-06T08:07:28.336Z,101698.13
2023-05-06T08:09:54.995Z,101694.72
2023-05-06T08:12:21.862Z,101709.16
2023-05-06T08:14:48.657Z,101706.03
2023-05-06T08:17:15.497Z,101711.00
2023-05-06T08:19:42.197Z,101708.22
2023-05-06T08:22:09.003Z,101706.06
2023-05-06T08:24:35.826Z,101711.44
2023-05-06T08:27:03.000Z,101710.91
2023-05-06T08:29:29.732Z,101710.69
2023-05-06T08:31:58.897Z,101702.91
2023-05-06T08:34:25.644Z,101704.06
2023-05-06T08:36:52.868Z,101700.69
2023-05-06T08:39:19.462Z,101701.09
2023-05-06T08:41:52.435Z,101704.09
2023-05-06T08:44:23.175Z,101705.44
2023-05-06T08:46:50.285Z,101697.81
2023-05-06T08:49:19.657Z,101697.44
2023-05-06T08:51:47.737Z,101692.19
2023-05-06T08:54:17.509Z,101693.13
2023-05-06T08:56:48.433Z,101688.28
2023-05-06T08:59:17.253Z,101696.34
2023-05-06T09:01:44.108Z,101693.47
2023-05-06T09:04:11.248Z,101696.28
2023-05-06T09:06:38.629Z,101686.72
2023-05-06T09:09:06.626Z,101683.69
2023-05-06T09:11:33.310Z,101682.34
2023-05-06T09:14:08.084Z,101679.78
2023-05-06T09:16:34.929Z,101676.81
2023-05-06T09:19:03.766Z,101684.38
2023-05-06T09:21:36.605Z,101673.78
2023-05-06T09:24:07.992Z,101672.97
2023-05-06T09:26:36.557Z,101672.59
2023-05-06T09:29:09.167Z,101674.41
2023-05-06T09:31:44.886Z,101677.97
2023-05-06T09:34:12.603Z,101675.59
2023-05-06T09:36:39.717Z,101672.66
2023-05-06T09:39:06.929Z,101670.75
2023-05-06T09:41:33.621Z,101684.38
2023-05-06T09:44:00.476Z,101670.94
2023-05-06T09:46:33.174Z,101664.03
2023-05-06T09:49:00.612Z,101677.09
2023-05-06T09:51:31.027Z,101664.31
2023-05-06T09:53:59.324Z,101669.06
2023-05-06T09:56:33.495Z,101662.19
2023-05-06T09:59:04.223Z,101658.06
2023-05-06T10:01:36.698Z,101668.88
2023-05-06T10:04:08.844Z,101666.09
2023-05-06T10:06:39.530Z,101657.31
2023-05-06T10:09:10.490Z,101661.97
2023-05-06T10:11:37.647Z,101670.63
2023-05-06T10:14:06.781Z,101645.81
2023-05-06T10:16:36.328Z,101648.00
2023-05-06T10:19:04.842Z,101652.38
2023-05-06T10:21:34.290Z,101640.28
2023-05-06T10:24:07.449Z,101652.22
2023-05-06T10:26:38.397Z,101637.19
2023-05-06T10:29:10.317Z,101629.66
2023-05-06T10:31:46.366Z,101633.59
2023-05-06T10:34:16.674Z,101635.91
2023-05-06T10:36:46.706Z,101631.28
2023-05-06T10:39:14.344Z,101646.31
2023-05-06T10:41:41.341Z,101648.22
2023-05-06T10:44:10.033Z,101633.47
2023-05-06T10:47:01.929Z,101632.69
2023-05-06T10:49:29.136Z,101627.34
2023-05-06T10:52:17.400Z,101621.91
2023-05-06T10:54:51.905Z,101618.88
2023-05-06T10:57:20.870Z,101619.06
2023-05-06T10:59:51.358Z,101617.47
2023-05-06T11:02:22.262Z,101622.81
2023-05-06T11:05:00.631Z,101619.41
2023-05-06T11:07:27.547Z,101619.41
2023-05-06T11:10:02.151Z,101606.25
2023-05-06T11:12:51.658Z,101609.91
2023-05-06T11:15:26.631Z,101559.88
2023-05-06T11:17:55.710Z,101618.63
2023-05-06T11:20:25.506Z,101615.16
2023-05-06T11:22:53.734Z,101609.66
2023-05-06T11:25:40.903Z,101616.28
2023-05-06T11:28:12.382Z,101610.69
2023-05-06T11:30:44.979Z,101613.38
2023-05-06T11:33:22.066Z,101603.56
2023-05-06T11:35:48.635Z,101606.38
2023-05-06T11:38:15.320Z,101612.06
2023-05-06T11:40:42.677Z,101604.44
2023-05-06T11:43:14.168Z,101608.09
2023-05-06T11:45:48.000Z,101601.81
2023-05-06T11:48:15.882Z,101607.84
2023-05-06T11:50:49.842Z,101563.34
2023-05-06T11:53:21.556Z,101608.81
2023-05-06T11:55:49.197Z,101608.97
2023-05-06T11:58:17.179Z,101605.41
2023-05-06T12:01:03.772Z,101603.78
2023-05-06T12:03:32.697Z,101610.22
2023-05-06T12:06:02.100Z,101605.09
2023-05-06T12:08:32.622Z,101593.09
2023-05-06T12:11:05.024Z,101577.53
2023-05-06T12:13:32.476Z,101603.78
2023-05-06T12:16:02.475Z,101604.28
2023-05-06T12:18:31.835Z,101606.66
2023-05-06T12:21:06.106Z,101601.72
2023-05-06T12:23:35.037Z,101603.25
2023-05-06T12:26:04.231Z,101593.56
2023-05-06T12:28:32.667Z,101596.00
2023-05-06T12:31:17.498Z,101588.28
2023-05-06T12:33:46.351Z,101597.72
2023-05-06T12:36:13.061Z,101590.47
2023-05-06T12:38:49.369Z,101607.38
2023-05-06T12:41:16.165Z,101601.38
2023-05-06T12:43:42.770Z,101604.63
2023-05-06T12:46:12.550Z,101592.19
2023-05-06T12:48:39.433Z,101587.53
2023-05-06T12:51:32.729Z,101601.91
2023-05-06T12:53:59.618Z,101601.16
2023-05-06T12:56:29.388Z,101596.44
2023-05-06T12:59:01.364Z,101592.53
2023-05-06T13:01:31.413Z,101597.59
2023-05-06T13:03:58.501Z,101597.94
2023-05-06T13:06:25.338Z,101597.97
2023-05-06T13:08:51.963Z,101596.25
2023-05-06T13:11:18.568Z,101595.25
2023-05-06T13:13:47.765Z,101594.63
2023-05-06T13:16:14.356Z,101598.66
2023-05-06T13:18:43.362Z,101601.22
2023-05-06T13:21:14.061Z,101597.66
2023-05-06T13:23:47.460Z,101595.41
2023-05-06T13:26:15.027Z,101598.69
2023-05-06T13:28:41.948Z,101563.91
2023-05-06T13:31:08.522Z,101588.84
2023-05-06T13:33:38.541Z,101593.31
2023-05-06T13:36:10.575Z,101582.16
2023-05-06T13:38:37.160Z,101583.50
2023-05-06T13:41:03.870Z,101580.47
2023-05-06T13:43:35.006Z,101590.75
2023-05-06T13:46:04.026Z,101576.78
2023-05-06T13:48:30.726Z,101584.09
2023-05-06T13:50:57.689Z,101575.69
2023-05-06T13:53:24.326Z,101573.09
2023-05-06T13:55:50.844Z,101569.56
2023-05-06T13:58:19.657Z,101568.97
2023-05-06T14:00:48.686Z,101571.41
2023-05-06T14:03:15.233Z,101562.72
2023-05-06T14:05:42.279Z,101561.16
2023-05-06T14:08:09.094Z,101563.47
2023-05-06T14:10:35.688Z,101565.66
2023-05-06T14:13:06.920Z,101568.72
2023-05-06T14:15:33.974Z,101556.44
2023-05-06T14:18:03.892Z,101555.25
2023-05-06T14:20:30.786Z,101551.97
2023-05-06T14:22:59.723Z,101540.25
2023-05-06T14:25:28.668Z,101552.41
2023-05-06T14:27:58.100Z,101552.38
2023-05-06T14:30:25.891Z,101544.78
2023-05-06T14:32:52.638Z,101551.00
2023-05-06T14:35:19.342Z,101536.63
2023-05-06T14:37:46.180Z,101547.75
2023-05-06T14:40:16.267Z,101541.16
2023-05-06T14:42:42.972Z,101500.16
2023-05-06T14:45:10.137Z,101535.41
2023-05-06T14:47:37.053Z,101530.78
2023-05-06T14:50:03.874Z,101528.25
2023-05-06T14:52:31.402Z,101537.38
2023-05-06T14:54:58.063Z,101536.38
2023-05-06T14:57:24.638Z,101531.78
2023-05-06T14:59:54.094Z,101540.31
2023-05-06T15:02:21.167Z,101524.09
2023-05-06T15:04:52.464Z,101533.50
2023-05-06T15:07:19.414Z,101538.50
2023-05-06T15:09:45.976Z,101541.41
2023-05-06T15:12:15.722Z,101535.91
2023-05-06T15:14:44.594Z,101546.38
2023-05-06T15:17:12.115Z,101534.31
2023-05-06T15:19:40.983Z,101539.38
2023-05-06T15:22:12.353Z,101531.94
2023-05-06T15:24:39.109Z,101525.25
2023-05-06T15:27:05.941Z,101536.28
2023-05-06T15:29:32.847Z,101530.56
2023-05-06T15:32:04.556Z,101535.19
2023-05-06T15:34:31.265Z,101533.34
2023-05-06T15:37:01.833Z,101539.91
2023-05-06T15:39:28.694Z,101539.66
2023-05-06T15:41:58.323Z,101545.34
2023-05-06T15:44:27.298Z,101542.56
2023-05-06T15:46:53.933Z,101538.44
2023-05-06T15:49:48.945Z,101536.59
2023-05-06T15:52:07.241Z,101541.19
2023-05-06T15:54:37.564Z,101545.19
2023-05-06T15:57:09.783Z,101543.53
2023-05-06T15:59:36.419Z,101547.25
2023-05-06T16:04:38.974Z,101555.44
2023-05-06T16:07:05.770Z,101551.72
2023-05-06T16:09:32.559Z,101559.38
2023-05-06T16:12:01.620Z,101562.75
2023-05-06T16:14:28.453Z,101573.94
2023-05-06T16:16:55.068Z,101539.16
2023-05-06T16:19:22.242Z,101561.50
2023-05-06T16:21:51.448Z,101540.44
2023-05-06T16:24:18.061Z,101579.19
2023-05-06T16:26:44.885Z,101576.19
2023-05-06T16:29:11.644Z,101584.94
2023-05-06T16:31:38.453Z,101573.94
2023-05-06T16:34:05.169Z,101588.66
2023-05-06T16:36:34.184Z,101581.69
2023-05-06T16:39:01.003Z,101591.03
2023-05-06T16:41:27.988Z,101610.03
2023-05-06T16:43:54.725Z,101611.28
2023-05-06T16:46:24.772Z,101611.28
2023-05-06T16:48:51.843Z,101607.00
2023-05-06T16:51:18.505Z,101617.25
2023-05-06T16:53:48.097Z,101615.09
2023-05-06T16:56:14.689Z,101613.09
2023-05-06T16:58:42.620Z,101610.97
2023-05-06T17:01:09.795Z,101605.38
2023-05-06T17:03:40.440Z,101607.06
2023-05-06T17:06:07.839Z,101602.06
2023-05-06T17:08:38.333Z,101601.34
2023-05-06T17:11:08.588Z,101602.56
2023-05-06T17:13:37.666Z,101585.16
2023-05-06T17:16:04.778Z,101607.66
2023-05-06T17:18:31.373Z,101605.28
2023-05-06T17:20:57.997Z,101601.59
2023-05-06T17:23:25.261Z,101600.00
2023-05-06T17:25:51.986Z,101614.13
2023-05-06T17:28:25.842Z,101607.28
2023-05-06T17:30:59.496Z,101618.56
2023-05-06T17:33:26.132Z,101611.69
2023-05-06T17:35:52.660Z,101613.38
2023-05-06T17:38:19.414Z,101574.06
2023-05-06T17:40:45.976Z,101614.50
2023-05-06T17:43:12.774Z,101601.00
2023-05-06T17:45:43.206Z,101602.47
2023-05-06T17:48:09.857Z,101610.28
2023-05-06T17:50:36.472Z,101608.91
2023-05-06T17:53:05.367Z,101621.03
2023-05-06T17:55:31.992Z,101617.63
2023-05-06T17:57:58.633Z,101608.94
2023-05-06T18:00:25.765Z,101616.13
2023-05-06T18:02:53.071Z,101625.97
2023-05-06T18:05:19.834Z,101620.81
2023-05-06T18:07:46.753Z,101611.34
2023-05-06T18:10:13.835Z,101625.00
2023-05-06T18:12:40.616Z,101629.91
2023-05-06T18:15:08.528Z,101601.75
2023-05-06T18:17:35.671Z,101624.28
2023-05-06T18:20:02.433Z,101617.97
2023-05-06T18:22:29.117Z,101630.97
2023-05-06T18:24:56.085Z,101587.53
2023-05-06T18:27:23.194Z,101624.69
2023-05-06T18:29:53.079Z,101625.06
2023-05-06T18:32:19.913Z,101628.97
2023-05-06T18:34:49.160Z,101632.00
2023-05-06T18:37:15.828Z,101630.94
2023-05-06T18:39:45.538Z,101626.00
2023-05-06T18:42:15.141Z,101621.50
2023-05-06T18:44:43.158Z,101624.09
2023-05-06T18:47:09.730Z,101614.81
2023-05-06T18:49:38.851Z,101631.72
2023-05-06T18:52:05.960Z,101632.09
2023-05-06T18:54:32.688Z,101618.84
2023-05-06T18:57:02.687Z,101621.03
2023-05-06T18:59:29.494Z,101624.03
2023-05-06T19:01:56.124Z,101628.22
2023-05-06T19:04:25.126Z,101633.75
2023-05-06T19:07:01.487Z,101618.28
2023-05-06T19:09:28.358Z,101626.41
2023-05-06T19:11:55.824Z,101636.91
2023-05-06T19:14:25.867Z,101629.44
2023-05-06T19:16:55.038Z,101634.50
2023-05-06T19:19:21.919Z,101631.06
2023-05-06T19:21:51.138Z,101635.94
2023-05-06T19:24:22.973Z,101634.69
2023-05-06T19:26:49.550Z,101637.81
2023-05-06T19:29:16.159Z,101631.34
2023-05-06T19:31:42.744Z,101631.34
2023-05-06T19:34:09.371Z,101628.28
2023-05-06T19:36:36.014Z,101636.19
2023-05-06T19:39:02.581Z,101638.63
2023-05-06T19:41:29.446Z,101638.78
2023-05-06T19:43:58.529Z,101616.75
2023-05-06T19:46:27.611Z,101623.69
2023-05-06T19:48:54.184Z,101633.41
2023-05-06T19:51:20.971Z,101624.31
2023-05-06T19:53:49.115Z,101630.31
2023-05-06T19:56:17.200Z,101635.00
2023-05-06T19:58:44.394Z,101623.47
2023-05-06T20:01:11.000Z,101617.44
2023-05-06T20:03:38.060Z,101625.16
2023-05-06T20:06:05.176Z,101625.84
2023-05-06T20:08:31.953Z,101617.44
2023-05-06T20:10:58.507Z,101626.41
2023-05-06T20:13:29.989Z,101628.47
2023-05-06T20:16:02.127Z,101626.06
2023-05-06T20:18:28.830Z,101632.00
2023-05-06T20:20:58.504Z,101632.84
2023-05-06T20:23:25.956Z,101631.47
2023-05-06T20:25:53.433Z,101628.22
2023-05-06T20:28:20.243Z,101605.56
2023-05-06T20:30:48.495Z,101629.78
2023-05-06T20:33:17.339Z,101612.75
2023-05-06T20:35:46.902Z,101633.28
2023-05-06T20:38:17.222Z,101606.72
2023-05-06T20:40:50.157Z,101607.09
2023-05-06T20:43:17.312Z,101619.16
2023-05-06T20:45:44.436Z,101615.03
2023-05-06T20:48:12.915Z,101621.59
2023-05-06T20:50:41.311Z,101623.00
2023-05-06T20:53:10.740Z,101620.22
2023-05-06T20:55:37.966Z,101625.09
2023-05-06T20:58:05.583Z,101590.19
2023-05-06T21:00:34.602Z,101607.06
2023-05-06T21:03:05.335Z,101615.22
2023-05-06T21:05:32.793Z,101628.97
2023-05-06T21:07:59.735Z,101567.53
2023-05-06T21:10:26.549Z,101621.25
2023-05-06T21:12:53.521Z,101595.41
2023-05-06T21:15:22.755Z,101608.84
2023-05-06T21:17:51.970Z,101594.97
2023-05-06T21:20:19.604Z,101619.94
2023-05-06T21:22:46.638Z,101615.81
2023-05-06T21:25:13.803Z,101610.16
2023-05-06T21:27:40.699Z,101602.94
2023-05-06T21:30:09.166Z,101591.94
2023-05-06T21:32:36.283Z,101606.22
2023-05-06T21:35:03.573Z,101596.09
2023-05-06T21:37:30.561Z,101601.78
2023-05-06T21:40:02.854Z,101611.97
2023-05-06T21:42:30.358Z,101611.28
2023-05-06T21:45:02.659Z,101604.06
2023-05-06T21:47:29.730Z,101612.16
2023-05-06T21:49:59.865Z,101620.06
2023-05-06T21:52:27.058Z,101600.28
2023-05-06T21:54:56.493Z,101602.50
2023-05-06T21:57:27.589Z,101618.34
2023-05-06T21:59:54.844Z,101624.38
2023-05-06T22:02:24.846Z,101627.47
2023-05-06T22:04:51.843Z,101614.22
2023-05-06T22:07:21.256Z,101624.38
2023-05-06T22:09:48.467Z,101631.31
2023-05-06T22:12:17.688Z,101596.66
2023-05-06T22:14:44.938Z,101615.63
2023-05-06T22:17:19.201Z,101597.50
2023-05-06T22:19:47.004Z,101597.84
2023-05-06T22:22:17.240Z,101498.53
2023-05-06T22:24:44.244Z,101583.22
2023-05-06T22:27:11.659Z,101605.25
2023-05-06T22:29:38.603Z,101608.19
2023-05-06T22:32:09.373Z,101598.88
2023-05-06T22:34:41.288Z,101611.28
2023-05-06T22:37:13.630Z,101597.00
2023-05-06T22:39:41.065Z,101603.00
2023-05-06T22:42:08.800Z,101596.81
2023-05-06T22:44:36.118Z,101591.97
2023-05-06T22:47:05.811Z,101596.59
2023-05-06T22:49:32.968Z,101574.00
2023-05-06T22:52:00.044Z,101589.34
2023-05-06T22:54:29.571Z,101611.88
2023-05-06T22:56:59.141Z,101597.34
2023-05-06T22:59:26.229Z,101618.38
2023-05-06T23:01:53.398Z,101617.69
2023-05-06T23:04:20.539Z,101599.91
2023-05-06T23:06:50.147Z,101582.28
2023-05-06T23:09:19.899Z,101605.66
2023-05-06T23:11:48.993Z,101615.50
2023-05-06T23:14:18.164Z,101615.97
2023-05-06T23:16:48.204Z,101611.81
2023-05-06T23:19:14.998Z,101610.78
2023-05-06T23:21:43.921Z,101598.66
2023-05-06T23:24:11.633Z,101611.53
2023-05-06T23:26:40.589Z,101612.75
2023-05-06T23:29:10.376Z,101622.84
2023-05-06T23:31:37.282Z,101626.66
2023-05-06T23:34:07.523Z,101612.31
2023-05-06T23:36:34.449Z,101629.88
2023-05-06T23:39:11.591Z,101626.97
2023-05-06T23:41:38.626Z,101611.97
2023-05-06T23:44:06.590Z,101602.13
2023-05-06T23:46:33.506Z,101621.97
2023-05-06T23:49:00.620Z,101624.00
2023-05-06T23:51:29.888Z,101625.56
2023-05-06T23:53:56.897Z,101642.31
2023-05-06T23:56:26.693Z,101632.34
2023-05-06T23:58:55.674Z,101618.88
